Time;durP1;ratioP1;P1;durP2;ratioP2;P2;SDS_P1;SDS_P2;PMS_P1;PMS_P2;Temp;Humidity;BMP_temperature;BMP_pressure;BME280_temperature;BME280_humidity;BME280_pressure;Samples;Min_cycle;Max_cycle;Signal;HPM_P1;HPM_P2
2024/01/29 00:01:15;;;;;;;3.78;2.28;;;;;;;;;;5069975;28;20040;-75
2024/01/29 00:03:40;;;;;;;6.75;3.40;;;;;;;;;;5071064;28;20037;-75
2024/01/29 00:06:05;;;;;;;7.93;3.40;;;;;;;;;;5061042;28;20041;-75
2024/01/29 00:08:31;;;;;;;6.60;2.72;;;;;;;;;;5059615;28;20057;-75
2024/01/29 00:10:56;;;;;;;5.35;3.42;;;;;;;;;;5068270;28;20672;-75
2024/01/29 00:13:22;;;;;;;10.07;3.95;;;;;;;;;;5059691;28;20587;-75
2024/01/29 00:15:47;;;;;;;5.00;2.90;;;;;;;;;;5060988;28;20040;-76
2024/01/29 00:18:12;;;;;;;6.43;3.42;;;;;;;;;;5054664;28;20046;-75
2024/01/29 00:20:38;;;;;;;3.22;2.03;;;;;;;;;;5069999;28;20385;-75
2024/01/29 00:23:03;;;;;;;2.83;2.20;;;;;;;;;;5060909;28;20483;-75
2024/01/29 00:25:28;;;;;;;5.40;2.88;;;;;;;;;;5063329;28;20162;-75
2024/01/29 00:27:54;;;;;;;3.80;2.28;;;;;;;;;;5060201;28;20044;-75
2024/01/29 00:30:19;;;;;;;4.65;2.22;;;;;;;;;;5069726;28;20024;-75
2024/01/29 00:32:45;;;;;;;4.70;2.78;;;;;;;;;;5067551;28;20119;-75
2024/01/29 00:35:10;;;;;;;9.10;4.00;;;;;;;;;;5066155;28;20040;-75
2024/01/29 00:37:35;;;;;;;7.80;3.03;;;;;;;;;;5062702;28;20090;-76
2024/01/29 00:40:02;;;;;;;7.63;3.78;;;;;;;;;;5068951;28;20048;-75
2024/01/29 00:42:27;;;;;;;7.43;3.55;;;;;;;;;;5062790;28;20041;-75
2024/01/29 00:44:52;;;;;;;4.35;3.28;;;;;;;;;;5053879;28;20094;-75
2024/01/29 00:47:20;;;;;;;4.22;2.85;;;;;;;;;;5056160;28;20044;-75
2024/01/29 00:49:45;;;;;;;5.32;3.47;;;;;;;;;;5069038;28;20550;-75
2024/01/29 00:52:11;;;;;;;4.80;2.80;;;;;;;;;;5069110;28;20045;-75
2024/01/29 00:54:36;;;;;;;3.38;2.17;;;;;;;;;;5070186;28;20098;-75
2024/01/29 00:57:01;;;;;;;8.02;2.42;;;;;;;;;;5053158;28;20029;-75
2024/01/29 00:59:27;;;;;;;4.47;2.50;;;;;;;;;;5069526;28;20131;-75
2024/01/29 01:01:52;;;;;;;5.90;3.10;;;;;;;;;;5066900;28;20029;-75
2024/01/29 01:04:17;;;;;;;4.20;2.17;;;;;;;;;;5066824;28;20469;-75
2024/01/29 01:06:42;;;;;;;2.45;1.60;;;;;;;;;;5060992;28;20040;-75
2024/01/29 01:09:09;;;;;;;5.07;2.33;;;;;;;;;;5052762;28;20051;-75
2024/01/29 01:11:35;;;;;;;3.60;2.30;;;;;;;;;;5063982;28;20490;-75
2024/01/29 01:14:00;;;;;;;7.95;2.30;;;;;;;;;;5065829;28;20043;-75
2024/01/29 01:16:26;;;;;;;2.25;1.70;;;;;;;;;;5065008;28;20529;-75
2024/01/29 01:18:51;;;;;;;4.38;1.90;;;;;;;;;;5065925;28;20048;-75
2024/01/29 01:21:16;;;;;;;2.85;1.60;;;;;;;;;;5066887;28;20404;-75
2024/01/29 01:23:42;;;;;;;3.70;1.42;;;;;;;;;;5065480;28;20127;-74
2024/01/29 01:26:07;;;;;;;2.17;1.58;;;;;;;;;;5066564;28;20043;-74
2024/01/29 01:28:32;;;;;;;1.20;1.10;;;;;;;;;;5063594;28;20056;-74
2024/01/29 01:30:57;;;;;;;2.75;2.05;;;;;;;;;;5069372;28;20032;-75
2024/01/29 01:33:23;;;;;;;2.50;2.28;;;;;;;;;;5065347;28;20635;-74
2024/01/29 01:35:48;;;;;;;4.97;2.33;;;;;;;;;;5066086;28;20067;-74
2024/01/29 01:38:13;;;;;;;3.03;2.55;;;;;;;;;;5061834;28;20550;-73
2024/01/29 01:40:39;;;;;;;3.33;2.42;;;;;;;;;;5068565;28;20093;-74
2024/01/29 01:43:14;;;;;;;3.10;2.33;;;;;;;;;;5066093;28;20085;-74
2024/01/29 01:45:39;;;;;;;2.67;2.13;;;;;;;;;;5068752;28;20113;-74
2024/01/29 01:48:05;;;;;;;5.28;2.50;;;;;;;;;;5061259;28;20052;-73
2024/01/29 01:50:31;;;;;;;5.68;2.95;;;;;;;;;;5065962;28;20040;-74
2024/01/29 01:52:56;;;;;;;6.35;3.45;;;;;;;;;;5056533;28;20101;-74
2024/01/29 01:55:22;;;;;;;6.80;3.28;;;;;;;;;;5068664;28;20060;-74
2024/01/29 01:57:47;;;;;;;3.60;2.60;;;;;;;;;;5054924;28;20128;-74
2024/01/29 02:00:13;;;;;;;3.95;2.70;;;;;;;;;;5060634;28;20059;-73
2024/01/29 02:02:40;;;;;;;7.10;2.88;;;;;;;;;;5069273;28;20165;-74
2024/01/29 02:05:05;;;;;;;3.17;2.40;;;;;;;;;;5068797;28;20037;-73
2024/01/29 02:07:31;;;;;;;4.32;2.10;;;;;;;;;;5055761;28;20033;-74
2024/01/29 02:09:56;;;;;;;2.42;1.70;;;;;;;;;;5055381;28;20072;-73
2024/01/29 02:12:22;;;;;;;3.25;1.70;;;;;;;;;;5063818;28;20041;-74
2024/01/29 02:14:50;;;;;;;2.03;1.67;;;;;;;;;;5064591;28;20097;-74
2024/01/29 02:17:16;;;;;;;1.98;1.80;;;;;;;;;;5058374;28;20043;-74
2024/01/29 02:19:41;;;;;;;3.20;1.90;;;;;;;;;;5049156;28;20033;-74
2024/01/29 02:22:06;;;;;;;2.38;1.73;;;;;;;;;;5048964;28;20041;-74
2024/01/29 02:24:31;;;;;;;2.75;1.83;;;;;;;;;;5055041;28;20400;-74
2024/01/29 02:26:58;;;;;;;3.28;1.75;;;;;;;;;;5060867;28;20035;-74
2024/01/29 02:29:23;;;;;;;6.65;2.28;;;;;;;;;;5050130;28;20379;-74
2024/01/29 02:31:48;;;;;;;4.63;2.10;;;;;;;;;;5049085;28;20040;-74
2024/01/29 02:34:14;;;;;;;4.32;1.70;;;;;;;;;;5052555;28;20032;-74
2024/01/29 02:36:39;;;;;;;2.40;1.70;;;;;;;;;;5052177;28;20123;-74
2024/01/29 02:39:04;;;;;;;8.07;2.20;;;;;;;;;;5056949;28;20037;-74
2024/01/29 02:41:30;;;;;;;1.63;1.50;;;;;;;;;;5049476;28;20033;-73
2024/01/29 02:43:55;;;;;;;2.03;1.67;;;;;;;;;;5053850;28;20091;-73
2024/01/29 02:46:20;;;;;;;1.67;1.48;;;;;;;;;;5051395;28;20035;-74
2024/01/29 02:48:46;;;;;;;2.75;1.92;;;;;;;;;;5056626;28;20052;-74
2024/01/29 02:51:11;;;;;;;4.38;2.20;;;;;;;;;;5057271;28;20041;-74
2024/01/29 02:53:37;;;;;;;2.53;1.65;;;;;;;;;;5057903;28;20029;-75
2024/01/29 02:56:02;;;;;;;3.28;1.73;;;;;;;;;;5057479;28;20076;-75
2024/01/29 02:58:29;;;;;;;2.65;2.15;;;;;;;;;;5056633;28;20033;-75
2024/01/29 03:00:54;;;;;;;2.10;1.85;;;;;;;;;;5057679;28;20048;-75
2024/01/29 03:03:20;;;;;;;3.88;1.85;;;;;;;;;;5048202;28;20036;-75
2024/01/29 03:05:45;;;;;;;2.38;1.52;;;;;;;;;;5064057;28;20036;-74
2024/01/29 03:08:10;;;;;;;1.50;1.40;;;;;;;;;;5051558;28;20505;-75
2024/01/29 03:10:36;;;;;;;3.72;1.40;;;;;;;;;;5044913;28;20053;-75
2024/01/29 03:13:01;;;;;;;2.92;1.77;;;;;;;;;;5063916;28;20032;-75
2024/01/29 03:15:26;;;;;;;1.52;1.42;;;;;;;;;;5060586;28;20044;-75
2024/01/29 03:17:52;;;;;;;1.40;1.30;;;;;;;;;;5061131;28;20041;-75
2024/01/29 03:20:17;;;;;;;1.55;1.45;;;;;;;;;;5064336;28;20044;-75
2024/01/29 03:22:42;;;;;;;2.33;1.73;;;;;;;;;;5056213;28;20033;-75
2024/01/29 03:25:08;;;;;;;3.22;1.55;;;;;;;;;;5064263;28;20063;-74
2024/01/29 03:27:33;;;;;;;2.60;1.92;;;;;;;;;;5058056;28;20037;-74
2024/01/29 03:29:59;;;;;;;1.80;1.70;;;;;;;;;;5054869;28;20087;-75
2024/01/29 03:32:24;;;;;;;2.38;1.92;;;;;;;;;;5060714;28;20478;-75
2024/01/29 03:34:49;;;;;;;2.78;1.98;;;;;;;;;;5061254;28;20505;-75
2024/01/29 03:37:15;;;;;;;2.85;2.03;;;;;;;;;;5059246;28;20040;-75
2024/01/29 03:39:40;;;;;;;1.55;1.40;;;;;;;;;;5064357;28;20071;-74
2024/01/29 03:42:05;;;;;;;1.92;1.38;;;;;;;;;;5063118;28;20301;-74
2024/01/29 03:44:31;;;;;;;1.58;1.27;;;;;;;;;;5054221;28;20040;-75
2024/01/29 03:46:57;;;;;;;1.77;1.45;;;;;;;;;;5057976;28;20128;-75
2024/01/29 03:49:22;;;;;;;6.63;2.20;;;;;;;;;;5058625;28;20040;-75
2024/01/29 03:51:47;;;;;;;4.75;2.33;;;;;;;;;;5057465;28;20055;-75
2024/01/29 03:54:13;;;;;;;2.53;2.25;;;;;;;;;;5058456;28;20040;-75
2024/01/29 03:56:38;;;;;;;3.10;2.53;;;;;;;;;;5056452;28;20055;-74
2024/01/29 03:59:03;;;;;;;6.25;2.97;;;;;;;;;;5059499;28;20456;-74
2024/01/29 04:01:29;;;;;;;2.05;1.65;;;;;;;;;;5057145;28;20402;-73
2024/01/29 04:03:55;;;;;;;9.70;2.03;;;;;;;;;;5057375;28;20037;-75
2024/01/29 04:06:21;;;;;;;2.95;1.30;;;;;;;;;;5061420;28;20568;-73
2024/01/29 04:08:46;;;;;;;2.05;1.80;;;;;;;;;;5060975;28;20143;-73
2024/01/29 04:11:11;;;;;;;12.23;2.28;;;;;;;;;;5055908;28;20040;-74
2024/01/29 04:13:37;;;;;;;1.48;1.35;;;;;;;;;;5064471;28;20037;-73
2024/01/29 04:16:03;;;;;;;3.13;2.17;;;;;;;;;;5061172;28;20048;-75
2024/01/29 04:18:28;;;;;;;4.78;2.50;;;;;;;;;;5061095;28;20067;-74
2024/01/29 04:20:53;;;;;;;3.28;1.75;;;;;;;;;;5061782;28;20036;-75
2024/01/29 04:23:19;;;;;;;3.20;1.98;;;;;;;;;;5063978;28;20040;-75
2024/01/29 04:25:44;;;;;;;1.23;1.13;;;;;;;;;;5064567;28;20470;-75
2024/01/29 04:28:09;;;;;;;3.70;1.98;;;;;;;;;;5065564;28;20051;-76
2024/01/29 04:30:35;;;;;;;4.75;2.10;;;;;;;;;;5062938;28;20067;-75
2024/01/29 04:33:00;;;;;;;6.95;2.25;;;;;;;;;;5071164;28;20439;-76
2024/01/29 04:35:25;;;;;;;4.75;2.60;;;;;;;;;;5064205;28;20089;-75
2024/01/29 04:37:51;;;;;;;2.88;2.50;;;;;;;;;;5058259;28;20382;-75
2024/01/29 04:40:16;;;;;;;4.40;2.38;;;;;;;;;;5067864;28;20041;-74
2024/01/29 04:42:41;;;;;;;4.75;2.17;;;;;;;;;;5058244;28;20065;-74
2024/01/29 04:45:07;;;;;;;2.63;1.95;;;;;;;;;;5054095;28;20033;-74
2024/01/29 04:47:33;;;;;;;4.05;2.25;;;;;;;;;;5060972;28;20048;-74
2024/01/29 04:49:58;;;;;;;3.13;1.60;;;;;;;;;;5064075;28;21046;-75
2024/01/29 04:52:23;;;;;;;3.08;2.33;;;;;;;;;;5063684;28;20335;-75
2024/01/29 04:54:48;;;;;;;5.63;1.77;;;;;;;;;;5057850;28;20493;-75
2024/01/29 04:57:14;;;;;;;2.35;1.80;;;;;;;;;;5055387;28;20040;-74
2024/01/29 04:59:40;;;;;;;2.28;1.73;;;;;;;;;;5065724;28;20029;-74
2024/01/29 05:02:05;;;;;;;2.78;1.60;;;;;;;;;;5053712;28;20079;-75
2024/01/29 05:04:31;;;;;;;4.18;2.40;;;;;;;;;;5057942;28;20067;-73
2024/01/29 05:06:56;;;;;;;4.47;1.63;;;;;;;;;;5064252;28;20037;-75
2024/01/29 05:09:21;;;;;;;3.28;1.90;;;;;;;;;;5061467;28;20032;-74
2024/01/29 05:11:46;;;;;;;3.22;2.45;;;;;;;;;;5058867;28;20036;-73
2024/01/29 05:14:12;;;;;;;2.72;1.70;;;;;;;;;;5068209;28;20032;-73
2024/01/29 05:16:37;;;;;;;8.30;2.20;;;;;;;;;;5054743;28;20378;-73
2024/01/29 05:19:02;;;;;;;4.13;2.42;;;;;;;;;;5064633;28;20063;-73
2024/01/29 05:21:28;;;;;;;2.30;1.80;;;;;;;;;;5069900;28;20622;-73
2024/01/29 05:23:53;;;;;;;2.30;1.83;;;;;;;;;;5063695;28;20040;-73
2024/01/29 05:26:18;;;;;;;3.25;1.80;;;;;;;;;;5064561;28;20039;-73
2024/01/29 05:28:44;;;;;;;2.05;1.77;;;;;;;;;;5061226;28;20083;-73
2024/01/29 05:31:10;;;;;;;3.85;2.33;;;;;;;;;;5056095;28;20558;-77
2024/01/29 05:33:35;;;;;;;2.00;1.80;;;;;;;;;;5064539;28;20040;-73
2024/01/29 05:36:00;;;;;;;3.05;1.48;;;;;;;;;;5070027;28;20090;-73
2024/01/29 05:38:26;;;;;;;4.13;1.92;;;;;;;;;;5060389;28;20527;-76
2024/01/29 05:40:51;;;;;;;2.90;1.60;;;;;;;;;;5056114;28;20079;-73
2024/01/29 05:43:16;;;;;;;2.72;1.70;;;;;;;;;;5059826;28;20040;-74
2024/01/29 05:45:42;;;;;;;0.90;0.90;;;;;;;;;;5066362;28;20036;-73
2024/01/29 05:48:08;;;;;;;1.30;1.15;;;;;;;;;;5057863;28;20036;-75
2024/01/29 05:50:33;;;;;;;1.83;1.00;;;;;;;;;;5055928;28;20036;-76
2024/01/29 05:52:59;;;;;;;1.40;1.30;;;;;;;;;;5057565;28;20448;-75
2024/01/29 05:55:24;;;;;;;1.38;1.20;;;;;;;;;;5068939;28;20048;-75
2024/01/29 05:57:50;;;;;;;3.60;1.40;;;;;;;;;;5059081;28;20029;-75
2024/01/29 06:00:15;;;;;;;1.02;1.00;;;;;;;;;;5067879;28;20032;-75
2024/01/29 06:02:45;;;;;;;1.40;1.05;;;;;;;;;;5059128;28;20453;-75
2024/01/29 06:05:11;;;;;;;1.17;1.17;;;;;;;;;;5063274;28;20051;-73
2024/01/29 06:07:38;;;;;;;1.70;1.05;;;;;;;;;;5061008;28;20036;-73
2024/01/29 06:10:04;;;;;;;1.13;1.02;;;;;;;;;;5062772;28;20106;-74
2024/01/29 06:12:29;;;;;;;1.67;1.23;;;;;;;;;;5056271;28;20114;-74
2024/01/29 06:14:54;;;;;;;2.35;1.48;;;;;;;;;;5055162;28;20041;-74
2024/01/29 06:17:20;;;;;;;1.88;1.58;;;;;;;;;;5055326;28;20460;-74
2024/01/29 06:19:45;;;;;;;1.60;1.50;;;;;;;;;;5054450;28;20044;-73
2024/01/29 06:22:10;;;;;;;3.10;1.75;;;;;;;;;;5061624;28;20200;-73
2024/01/29 06:24:36;;;;;;;2.85;1.60;;;;;;;;;;5055814;28;20044;-73
2024/01/29 06:27:01;;;;;;;2.65;1.70;;;;;;;;;;5059208;28;20119;-73
2024/01/29 06:29:27;;;;;;;1.40;1.23;;;;;;;;;;5054638;28;20053;-74
2024/01/29 06:31:52;;;;;;;2.63;1.40;;;;;;;;;;5049632;28;20094;-75
2024/01/29 06:34:18;;;;;;;1.40;1.30;;;;;;;;;;5054477;28;20071;-74
2024/01/29 06:36:43;;;;;;;1.10;1.00;;;;;;;;;;5053579;28;20040;-74
2024/01/29 06:39:09;;;;;;;0.95;0.95;;;;;;;;;;5057986;28;20060;-74
2024/01/29 06:41:34;;;;;;;0.80;0.80;;;;;;;;;;5052723;28;20099;-74
2024/01/29 06:43:59;;;;;;;6.63;1.27;;;;;;;;;;5051768;28;20043;-76
2024/01/29 06:46:24;;;;;;;3.45;3.15;;;;;;;;;;5058329;28;20042;-75
2024/01/29 06:48:50;;;;;;;3.83;1.42;;;;;;;;;;5049268;28;20110;-76
2024/01/29 06:51:16;;;;;;;1.13;1.02;;;;;;;;;;5058619;28;20549;-72
2024/01/29 06:53:41;;;;;;;1.95;1.25;;;;;;;;;;5058047;28;20555;-73
2024/01/29 06:56:07;;;;;;;0.90;0.80;;;;;;;;;;5058375;28;20389;-74
2024/01/29 06:58:33;;;;;;;1.27;0.98;;;;;;;;;;5053454;28;20132;-73
2024/01/29 07:01:02;;;;;;;0.95;0.90;;;;;;;;;;5068155;28;20036;-73
2024/01/29 07:03:27;;;;;;;1.02;0.80;;;;;;;;;;5062936;28;20162;-74
2024/01/29 07:05:53;;;;;;;1.10;1.10;;;;;;;;;;5055305;28;20124;-73
2024/01/29 07:08:18;;;;;;;2.13;1.50;;;;;;;;;;5057178;28;20037;-73
2024/01/29 07:10:46;;;;;;;2.15;1.98;;;;;;;;;;5061844;28;20036;-74
2024/01/29 07:13:12;;;;;;;2.22;2.03;;;;;;;;;;5062338;28;20028;-73
2024/01/29 07:15:38;;;;;;;3.63;1.95;;;;;;;;;;5062283;28;20408;-76
2024/01/29 07:18:04;;;;;;;5.85;2.55;;;;;;;;;;5055046;28;20032;-76
2024/01/29 07:20:31;;;;;;;3.53;2.30;;;;;;;;;;5065937;28;20108;-73
2024/01/29 07:22:57;;;;;;;4.28;2.13;;;;;;;;;;5050714;28;20052;-73
2024/01/29 07:25:22;;;;;;;2.05;1.45;;;;;;;;;;5053346;28;20119;-73
2024/01/29 07:27:48;;;;;;;1.42;1.33;;;;;;;;;;5052990;28;20040;-73
2024/01/29 07:30:14;;;;;;;1.00;1.00;;;;;;;;;;5061341;28;20032;-73
2024/01/29 07:32:39;;;;;;;2.17;1.25;;;;;;;;;;5055932;28;20035;-73
2024/01/29 07:35:06;;;;;;;0.75;0.75;;;;;;;;;;5060053;28;20409;-73
2024/01/29 07:37:31;;;;;;;1.60;1.20;;;;;;;;;;5051668;28;20033;-75
2024/01/29 07:39:56;;;;;;;1.65;1.30;;;;;;;;;;5056288;28;20041;-73
2024/01/29 07:42:22;;;;;;;1.10;1.00;;;;;;;;;;5058685;28;20472;-73
2024/01/29 07:44:48;;;;;;;1.83;1.25;;;;;;;;;;5046469;28;20055;-73
2024/01/29 07:47:14;;;;;;;2.47;1.90;;;;;;;;;;5049437;28;20437;-74
2024/01/29 07:49:39;;;;;;;3.42;1.92;;;;;;;;;;5048448;28;20063;-74
2024/01/29 07:52:05;;;;;;;2.45;1.85;;;;;;;;;;5042163;28;20065;-74
2024/01/29 07:54:30;;;;;;;3.22;2.03;;;;;;;;;;5058250;28;20081;-73
2024/01/29 07:56:55;;;;;;;8.07;3.50;;;;;;;;;;5057146;28;20024;-73
2024/01/29 07:59:21;;;;;;;2.40;1.88;;;;;;;;;;5054131;28;20188;-74
2024/01/29 08:01:46;;;;;;;4.93;2.10;;;;;;;;;;5050324;28;20056;-74
2024/01/29 08:04:11;;;;;;;3.95;2.20;;;;;;;;;;5053784;28;20409;-76
2024/01/29 08:06:37;;;;;;;3.78;2.17;;;;;;;;;;5056527;28;20460;-75
2024/01/29 08:09:04;;;;;;;2.47;1.88;;;;;;;;;;5052596;28;20037;-75
2024/01/29 08:11:30;;;;;;;9.48;1.95;;;;;;;;;;5059969;28;20399;-75
2024/01/29 08:13:56;;;;;;;1.30;1.20;;;;;;;;;;5059532;28;20052;-76
2024/01/29 08:16:21;;;;;;;2.78;1.85;;;;;;;;;;5056266;28;20044;-75
2024/01/29 08:18:46;;;;;;;1.83;1.70;;;;;;;;;;5054606;28;20040;-75
2024/01/29 08:21:11;;;;;;;2.90;1.73;;;;;;;;;;5058145;28;20068;-75
2024/01/29 08:23:37;;;;;;;2.00;1.67;;;;;;;;;;5062241;28;20082;-75
2024/01/29 08:26:02;;;;;;;1.40;1.30;;;;;;;;;;5057207;28;20036;-75
2024/01/29 08:28:28;;;;;;;2.03;1.60;;;;;;;;;;5059655;28;20405;-74
2024/01/29 08:30:55;;;;;;;2.78;1.83;;;;;;;;;;5055763;28;20300;-74
2024/01/29 08:33:20;;;;;;;3.95;1.70;;;;;;;;;;5053631;28;20393;-73
2024/01/29 08:35:46;;;;;;;1.95;1.63;;;;;;;;;;5055296;28;20033;-73
2024/01/29 08:38:11;;;;;;;1.77;1.40;;;;;;;;;;5061231;28;20070;-74
2024/01/29 08:40:38;;;;;;;2.47;1.73;;;;;;;;;;5060953;28;20032;-73
2024/01/29 08:43:03;;;;;;;3.25;1.80;;;;;;;;;;5052927;28;20524;-73
2024/01/29 08:45:28;;;;;;;4.15;2.10;;;;;;;;;;5053225;28;20041;-74
2024/01/29 08:47:54;;;;;;;1.80;1.70;;;;;;;;;;5053322;28;20037;-74
2024/01/29 08:50:19;;;;;;;2.15;1.70;;;;;;;;;;5059426;28;20026;-74
2024/01/29 08:52:44;;;;;;;2.40;1.60;;;;;;;;;;5058968;28;20074;-74
2024/01/29 08:55:11;;;;;;;2.30;1.58;;;;;;;;;;5056993;28;20032;-74
2024/01/29 08:57:36;;;;;;;2.75;1.38;;;;;;;;;;5052962;28;20032;-74
2024/01/29 09:00:04;;;;;;;1.48;1.20;;;;;;;;;;5057845;28;20037;-73
2024/01/29 09:02:31;;;;;;;2.13;1.50;;;;;;;;;;5057633;28;20074;-73
2024/01/29 09:04:57;;;;;;;1.83;1.45;;;;;;;;;;5059554;28;20602;-74
2024/01/29 09:07:22;;;;;;;3.97;1.45;;;;;;;;;;5060758;28;20071;-74
2024/01/29 09:09:48;;;;;;;1.38;1.27;;;;;;;;;;5051565;28;20064;-74
2024/01/29 09:12:13;;;;;;;2.65;1.42;;;;;;;;;;5048659;28;20033;-74
2024/01/29 09:14:38;;;;;;;1.35;1.25;;;;;;;;;;5060040;28;20028;-74
2024/01/29 09:17:04;;;;;;;2.22;1.52;;;;;;;;;;5058148;28;20029;-74
2024/01/29 09:19:29;;;;;;;2.80;1.40;;;;;;;;;;5058822;28;20040;-74
2024/01/29 09:21:54;;;;;;;1.73;1.30;;;;;;;;;;5061035;28;20040;-74
2024/01/29 09:24:20;;;;;;;1.67;1.30;;;;;;;;;;5047941;28;20512;-74
2024/01/29 09:26:45;;;;;;;1.92;1.50;;;;;;;;;;5054999;28;20543;-74
2024/01/29 09:29:11;;;;;;;2.95;1.50;;;;;;;;;;5060200;28;20078;-74
2024/01/29 09:31:36;;;;;;;2.47;1.60;;;;;;;;;;5060020;28;20043;-74
2024/01/29 09:34:03;;;;;;;2.25;1.52;;;;;;;;;;5060377;28;20082;-74
2024/01/29 09:36:28;;;;;;;3.08;1.55;;;;;;;;;;5055944;28;20413;-75
2024/01/29 09:38:54;;;;;;;3.13;1.63;;;;;;;;;;5059694;28;20048;-75
2024/01/29 09:41:19;;;;;;;1.98;1.50;;;;;;;;;;5058459;28;20259;-75
2024/01/29 09:43:46;;;;;;;5.72;1.65;;;;;;;;;;5061259;28;20489;-75
2024/01/29 09:46:14;;;;;;;3.03;1.70;;;;;;;;;;5063865;28;20057;-75
2024/01/29 09:48:41;;;;;;;1.80;1.50;;;;;;;;;;5059030;28;20071;-75
2024/01/29 09:51:07;;;;;;;2.85;1.63;;;;;;;;;;5056679;28;20033;-75
2024/01/29 09:53:35;;;;;;;3.05;1.55;;;;;;;;;;5053567;28;20397;-75
2024/01/29 09:56:00;;;;;;;6.07;1.52;;;;;;;;;;5053468;28;20051;-75
2024/01/29 09:58:26;;;;;;;6.63;1.55;;;;;;;;;;5049651;28;20123;-75
2024/01/29 10:00:52;;;;;;;5.07;1.77;;;;;;;;;;5050749;28;20124;-72
2024/01/29 10:03:27;;;;;;;1.30;1.20;;;;;;;;;;5055960;28;20406;-75
2024/01/29 10:05:54;;;;;;;3.35;1.90;;;;;;;;;;5056709;28;20119;-73
2024/01/29 10:08:21;;;;;;;3.75;1.80;;;;;;;;;;5050676;28;20394;-75
2024/01/29 10:10:48;;;;;;;4.00;2.15;;;;;;;;;;5052851;28;20552;-74
2024/01/29 10:13:13;;;;;;;3.75;1.90;;;;;;;;;;5053976;28;20063;-74
2024/01/29 10:15:39;;;;;;;1.98;1.77;;;;;;;;;;5054356;28;20454;-75
2024/01/29 10:18:10;;;;;;;3.05;1.48;;;;;;;;;;5053802;28;20158;-75
2024/01/29 10:20:36;;;;;;;1.58;1.48;;;;;;;;;;5064742;28;20067;-73
2024/01/29 10:23:02;;;;;;;2.70;1.50;;;;;;;;;;5054487;28;20474;-75
2024/01/29 10:25:29;;;;;;;4.00;2.60;;;;;;;;;;5047977;28;20135;-73
2024/01/29 10:28:13;;;;;;;5.65;2.75;;;;;;;;;;5054773;28;20130;-73
2024/01/29 10:30:42;;;;;;;9.63;3.95;;;;;;;;;;5060619;28;20546;-73
2024/01/29 10:33:08;;;;;;;6.30;3.28;;;;;;;;;;5059418;28;20431;-73
2024/01/29 10:35:33;;;;;;;6.60;3.53;;;;;;;;;;5051037;28;20118;-75
2024/01/29 10:38:04;;;;;;;6.53;3.00;;;;;;;;;;5055548;28;20025;-73
2024/01/29 10:40:34;;;;;;;7.22;3.15;;;;;;;;;;5047070;28;20522;-73
2024/01/29 10:43:00;;;;;;;6.53;3.35;;;;;;;;;;5056076;28;20504;-74
2024/01/29 10:45:27;;;;;;;4.47;2.85;;;;;;;;;;5055919;28;20523;-73
2024/01/29 10:47:57;;;;;;;5.78;2.42;;;;;;;;;;5054837;28;20041;-73
2024/01/29 10:50:23;;;;;;;5.15;2.38;;;;;;;;;;5059582;28;20060;-73
2024/01/29 10:52:50;;;;;;;3.08;1.80;;;;;;;;;;5051947;28;20045;-74
2024/01/29 10:55:16;;;;;;;2.13;1.30;;;;;;;;;;5053358;28;20037;-74
2024/01/29 10:57:46;;;;;;;1.45;1.33;;;;;;;;;;5050932;28;20043;-74
2024/01/29 11:00:14;;;;;;;4.50;1.50;;;;;;;;;;5059075;28;20397;-74
2024/01/29 11:02:40;;;;;;;1.25;1.15;;;;;;;;;;5061868;28;20070;-74
2024/01/29 11:05:07;;;;;;;2.08;1.33;;;;;;;;;;5058417;28;20701;-74
2024/01/29 11:07:33;;;;;;;1.27;1.17;;;;;;;;;;5047513;28;20056;-74
2024/01/29 11:10:09;;;;;;;1.20;1.10;;;;;;;;;;5050371;28;20079;-74
2024/01/29 11:12:37;;;;;;;0.90;0.85;;;;;;;;;;5045352;28;20514;-74
2024/01/29 11:15:04;;;;;;;1.20;1.10;;;;;;;;;;5058789;28;20506;-74
2024/01/29 11:17:30;;;;;;;1.55;1.15;;;;;;;;;;5048635;28;20032;-74
2024/01/29 11:20:00;;;;;;;2.60;1.77;;;;;;;;;;5062348;28;20041;-74
2024/01/29 11:22:36;;;;;;;4.53;2.30;;;;;;;;;;5067876;28;20033;-74
2024/01/29 11:25:12;;;;;;;18.80;4.95;;;;;;;;;;5064179;28;20501;-74
2024/01/29 11:27:38;;;;;;;36.60;14.50;;;;;;;;;;5051860;28;20453;-73
2024/01/29 11:30:21;;;;;;;38.30;15.88;;;;;;;;;;5064981;28;20029;-73
2024/01/29 11:33:11;;;;;;;32.40;13.02;;;;;;;;;;5064899;28;20106;-73
2024/01/29 11:35:36;;;;;;;28.90;11.55;;;;;;;;;;5056969;28;20509;-74
2024/01/29 11:38:07;;;;;;;28.48;10.30;;;;;;;;;;5059185;28;20120;-73
2024/01/29 11:40:34;;;;;;;22.70;10.27;;;;;;;;;;5069644;28;20045;-74
2024/01/29 11:43:11;;;;;;;19.58;9.85;;;;;;;;;;5063840;28;20131;-73
2024/01/29 11:45:37;;;;;;;9.07;5.03;;;;;;;;;;5071339;28;20047;-74
2024/01/29 11:48:09;;;;;;;9.07;5.65;;;;;;;;;;5061303;28;20040;-73
2024/01/29 11:50:34;;;;;;;12.38;6.38;;;;;;;;;;5067269;28;20398;-73
2024/01/29 11:52:59;;;;;;;13.88;7.35;;;;;;;;;;5068595;28;20119;-73
2024/01/29 11:55:25;;;;;;;12.15;6.20;;;;;;;;;;5070800;28;20036;-73
2024/01/29 11:57:53;;;;;;;11.07;5.40;;;;;;;;;;5057970;28;20037;-73
2024/01/29 12:00:19;;;;;;;12.05;6.70;;;;;;;;;;5047853;28;20036;-73
2024/01/29 12:02:48;;;;;;;15.57;7.57;;;;;;;;;;5071271;28;20060;-73
2024/01/29 12:05:14;;;;;;;9.32;5.45;;;;;;;;;;5057684;28;20070;-73
2024/01/29 12:07:39;;;;;;;11.50;5.60;;;;;;;;;;5061613;28;20064;-73
2024/01/29 12:10:05;;;;;;;10.23;4.65;;;;;;;;;;5058306;28;20025;-73
2024/01/29 12:12:30;;;;;;;11.93;4.97;;;;;;;;;;5070162;28;20473;-73
2024/01/29 12:14:56;;;;;;;7.78;4.47;;;;;;;;;;5069399;28;20036;-73
2024/01/29 12:17:22;;;;;;;6.65;3.80;;;;;;;;;;5061403;28;20499;-73
2024/01/29 12:19:51;;;;;;;9.50;3.63;;;;;;;;;;5065393;28;20527;-73
2024/01/29 12:22:18;;;;;;;5.40;3.05;;;;;;;;;;5068071;28;20647;-73
2024/01/29 12:24:44;;;;;;;8.88;3.65;;;;;;;;;;5066533;28;20058;-73
2024/01/29 12:27:09;;;;;;;9.63;2.80;;;;;;;;;;5051361;28;20033;-76
2024/01/29 12:29:36;;;;;;;5.70;3.08;;;;;;;;;;5038793;28;20057;-73
2024/01/29 12:32:11;;;;;;;9.27;3.00;;;;;;;;;;5049758;28;20041;-74
2024/01/29 12:34:47;;;;;;;5.00;2.60;;;;;;;;;;5053412;28;20134;-73
2024/01/29 12:37:21;;;;;;;3.67;1.60;;;;;;;;;;5056180;28;20044;-73
2024/01/29 12:39:53;;;;;;;3.17;1.60;;;;;;;;;;5053834;28;20041;-73
2024/01/29 12:42:20;;;;;;;3.17;1.70;;;;;;;;;;5064675;28;20045;-73
2024/01/29 12:44:45;;;;;;;2.30;1.52;;;;;;;;;;5069371;28;20040;-73
2024/01/29 12:47:14;;;;;;;2.72;1.55;;;;;;;;;;5053990;28;20032;-73
2024/01/29 12:49:40;;;;;;;3.25;2.05;;;;;;;;;;5046958;28;20566;-73
2024/01/29 12:52:08;;;;;;;7.28;2.53;;;;;;;;;;5054261;28;20045;-73
2024/01/29 12:54:33;;;;;;;6.75;1.33;;;;;;;;;;5059229;28;20051;-73
2024/01/29 12:56:59;;;;;;;1.20;0.90;;;;;;;;;;5052271;28;20045;-73
2024/01/29 12:59:25;;;;;;;1.45;1.00;;;;;;;;;;5051207;28;20607;-73
2024/01/29 13:01:50;;;;;;;0.85;0.80;;;;;;;;;;5047950;28;20033;-74
2024/01/29 13:04:16;;;;;;;2.20;1.00;;;;;;;;;;5054619;28;20051;-73
2024/01/29 13:06:42;;;;;;;2.58;0.80;;;;;;;;;;5060704;28;20029;-73
2024/01/29 13:09:07;;;;;;;0.80;0.80;;;;;;;;;;5052720;28;20191;-73
2024/01/29 13:11:32;;;;;;;0.70;0.70;;;;;;;;;;5049356;28;20473;-74
2024/01/29 13:13:59;;;;;;;0.70;0.70;;;;;;;;;;5049859;28;20110;-74
2024/01/29 13:16:24;;;;;;;2.47;0.88;;;;;;;;;;5053185;28;20033;-74
2024/01/29 13:18:50;;;;;;;0.90;0.90;;;;;;;;;;5053814;28;20067;-74
2024/01/29 13:21:17;;;;;;;0.82;0.82;;;;;;;;;;5054901;28;20033;-74
2024/01/29 13:23:46;;;;;;;0.93;0.80;;;;;;;;;;5049355;28;20028;-74
2024/01/29 13:26:12;;;;;;;0.80;0.80;;;;;;;;;;5051610;28;20043;-74
2024/01/29 13:28:38;;;;;;;1.20;1.10;;;;;;;;;;5052437;28;20037;-74
2024/01/29 13:31:03;;;;;;;0.90;0.90;;;;;;;;;;5056504;28;20065;-74
2024/01/29 13:33:29;;;;;;;0.80;0.80;;;;;;;;;;5050461;28;20532;-74
2024/01/29 13:35:55;;;;;;;1.13;1.05;;;;;;;;;;5035177;28;20447;-74
2024/01/29 13:38:21;;;;;;;0.77;0.77;;;;;;;;;;5042921;28;20036;-74
2024/01/29 13:40:48;;;;;;;0.98;0.98;;;;;;;;;;5043892;28;20037;-75
2024/01/29 13:43:17;;;;;;;0.70;0.70;;;;;;;;;;5050560;28;20370;-76
2024/01/29 13:45:43;;;;;;;0.82;0.82;;;;;;;;;;5040658;28;20682;-73
2024/01/29 13:48:09;;;;;;;0.85;0.82;;;;;;;;;;5048474;28;20042;-73
2024/01/29 13:50:35;;;;;;;0.80;0.80;;;;;;;;;;5044716;28;20033;-74
2024/01/29 13:53:01;;;;;;;0.80;0.80;;;;;;;;;;5049446;28;20037;-74
2024/01/29 13:55:26;;;;;;;1.23;1.13;;;;;;;;;;5051445;28;20047;-74
2024/01/29 13:57:51;;;;;;;0.90;0.90;;;;;;;;;;5049232;28;20045;-74
2024/01/29 14:00:17;;;;;;;4.78;0.95;;;;;;;;;;5055349;28;20044;-74
2024/01/29 14:02:43;;;;;;;3.45;1.00;;;;;;;;;;5056983;28;20032;-74
2024/01/29 14:05:09;;;;;;;2.47;0.77;;;;;;;;;;5049648;28;20127;-74
2024/01/29 14:07:34;;;;;;;1.08;1.00;;;;;;;;;;5051651;28;20044;-74
2024/01/29 14:10:00;;;;;;;1.10;1.00;;;;;;;;;;5049457;28;20505;-74
2024/01/29 14:12:25;;;;;;;1.23;0.95;;;;;;;;;;5049345;28;20052;-74
2024/01/29 14:14:51;;;;;;;2.35;0.90;;;;;;;;;;5048087;28;20397;-74
2024/01/29 14:17:16;;;;;;;1.02;0.85;;;;;;;;;;5053042;28;20037;-74
2024/01/29 14:19:42;;;;;;;3.60;1.50;;;;;;;;;;5052833;28;20052;-74
2024/01/29 14:22:08;;;;;;;2.83;1.77;;;;;;;;;;5054413;28;20044;-74
2024/01/29 14:24:33;;;;;;;2.05;1.50;;;;;;;;;;5052685;28;20041;-74
2024/01/29 14:26:59;;;;;;;2.85;1.40;;;;;;;;;;5050193;28;20037;-74
2024/01/29 14:29:24;;;;;;;1.60;1.50;;;;;;;;;;5051272;28;20044;-73
2024/01/29 14:31:49;;;;;;;2.90;1.60;;;;;;;;;;5043037;28;20086;-74
2024/01/29 14:34:15;;;;;;;1.60;1.50;;;;;;;;;;5040259;28;20244;-74
2024/01/29 14:36:40;;;;;;;2.08;1.80;;;;;;;;;;5048672;28;20037;-74